createdAt,value
2022-11-03T00:01:45.519Z,2.47
2022-11-03T00:06:10.772Z,2.90
2022-11-03T00:10:35.977Z,2.67
2022-11-03T00:15:01.171Z,2.83
2022-11-03T00:19:26.375Z,2.80
2022-11-03T00:23:52.068Z,2.70
2022-11-03T00:28:17.341Z,2.77
2022-11-03T00:32:42.570Z,2.50
2022-11-03T00:37:07.860Z,2.47
2022-11-03T00:41:33.560Z,2.40
2022-11-03T00:45:59.350Z,2.50
2022-11-03T00:50:24.575Z,2.03
2022-11-03T00:54:54.241Z,2.20
2022-11-03T00:59:20.714Z,2.70
2022-11-03T01:04:08.187Z,2.67
2022-11-03T01:08:35.178Z,2.20
2022-11-03T01:13:02.064Z,2.87
2022-11-03T01:17:29.170Z,2.43
2022-11-03T01:21:54.668Z,2.10
2022-11-03T01:26:19.897Z,2.60
2022-11-03T01:30:45.119Z,2.60
2022-11-03T01:35:10.326Z,2.50
2022-11-03T01:39:35.595Z,2.53
2022-11-03T01:44:10.059Z,2.30
2022-11-03T01:48:38.166Z,2.70
2022-11-03T01:53:03.619Z,2.60
2022-11-03T01:57:56.738Z,2.70
2022-11-03T02:02:22.121Z,2.70
2022-11-03T02:06:55.106Z,2.50
2022-11-03T02:11:38.761Z,2.33
2022-11-03T02:16:04.188Z,2.50
2022-11-03T02:20:31.968Z,2.70
2022-11-03T02:25:46.680Z,3.27
2022-11-03T02:30:12.119Z,3.37
2022-11-03T02:35:00.978Z,2.63
2022-11-03T02:39:35.484Z,2.10
2022-11-03T02:44:01.962Z,2.50
2022-11-03T02:48:27.256Z,2.80
2022-11-03T02:52:52.723Z,2.30
2022-11-03T02:57:23.917Z,2.07
2022-11-03T03:02:03.769Z,2.37
2022-11-03T03:06:54.282Z,2.00
2022-11-03T03:11:37.782Z,2.10
2022-11-03T03:16:12.072Z,2.43
2022-11-03T03:20:52.513Z,2.10
2022-11-03T03:25:30.945Z,2.63
2022-11-03T03:30:04.899Z,1.90
2022-11-03T03:34:35.246Z,2.20
2022-11-03T03:39:05.935Z,2.23
2022-11-03T03:43:34.256Z,2.20
2022-11-03T03:48:00.222Z,2.13
2022-11-03T03:52:26.187Z,2.63
2022-11-03T03:57:04.336Z,2.50
2022-11-03T04:01:29.702Z,1.90
2022-11-03T04:05:55.009Z,2.20
2022-11-03T04:10:23.330Z,3.10
2022-11-03T04:15:07.221Z,2.40
2022-11-03T04:19:50.834Z,2.30
2022-11-03T04:24:16.215Z,2.33
2022-11-03T04:28:42.432Z,2.00
2022-11-03T04:33:20.494Z,2.10
2022-11-03T04:37:51.258Z,2.17
2022-11-03T04:42:21.103Z,2.40
2022-11-03T04:46:46.919Z,2.10
2022-11-03T04:51:26.954Z,2.40
2022-11-03T04:55:54.217Z,2.37
2022-11-03T05:00:20.323Z,2.57
2022-11-03T05:04:45.957Z,2.43
2022-11-03T05:09:24.762Z,1.80
2022-11-03T05:13:51.351Z,2.00
2022-11-03T05:18:22.398Z,2.20
2022-11-03T05:22:47.619Z,2.00
2022-11-03T05:27:21.705Z,2.00
2022-11-03T05:31:53.831Z,2.27
2022-11-03T05:36:25.584Z,1.93
2022-11-03T05:40:53.973Z,2.47
2022-11-03T05:45:34.039Z,2.60
2022-11-03T05:50:16.484Z,1.80
2022-11-03T05:54:41.781Z,2.43
2022-11-03T05:59:11.853Z,2.30
2022-11-03T06:03:37.459Z,2.97
2022-11-03T06:08:14.390Z,2.47
2022-11-03T06:12:39.704Z,2.03
2022-11-03T06:17:24.165Z,2.70
2022-11-03T06:21:52.101Z,2.23
2022-11-03T06:26:23.192Z,2.30
2022-11-03T06:30:50.642Z,2.07
2022-11-03T06:35:18.090Z,2.10
2022-11-03T06:39:43.342Z,1.97
2022-11-03T06:44:25.955Z,2.20
2022-11-03T06:48:58.296Z,2.37
2022-11-03T06:53:31.668Z,2.43
2022-11-03T06:58:29.687Z,2.70
2022-11-03T07:03:39.413Z,2.10
2022-11-03T07:08:22.460Z,2.27
2022-11-03T07:12:47.795Z,2.07
2022-11-03T07:17:21.761Z,2.47
2022-11-03T07:21:51.001Z,1.90
2022-11-03T07:26:16.379Z,2.43
2022-11-03T07:30:42.981Z,1.90
2022-11-03T07:36:00.438Z,2.20
2022-11-03T07:40:25.692Z,1.90
2022-11-03T07:44:52.915Z,2.20
2022-11-03T07:49:36.363Z,2.13
2022-11-03T07:54:30.507Z,1.50
2022-11-03T07:59:01.717Z,2.13
2022-11-03T08:03:41.754Z,1.90
2022-11-03T08:08:07.187Z,2.40
2022-11-03T08:12:32.750Z,1.80
2022-11-03T08:16:58.088Z,2.20
2022-11-03T08:21:23.577Z,1.90
2022-11-03T08:25:48.839Z,2.07
2022-11-03T08:30:14.384Z,1.90
2022-11-03T08:34:39.832Z,2.10
2022-11-03T08:39:05.715Z,1.73
2022-11-03T08:43:31.156Z,2.00
2022-11-03T08:47:56.772Z,1.70
2022-11-03T08:52:22.120Z,2.00
2022-11-03T09:05:40.223Z,2.00
2022-11-03T09:10:28.350Z,2.07
2022-11-03T09:19:18.841Z,2.67
2022-11-03T09:23:44.071Z,2.77
2022-11-03T09:28:09.691Z,2.33
2022-11-03T09:41:28.136Z,2.03
2022-11-03T09:46:08.561Z,1.80
2022-11-03T09:50:33.943Z,1.60
2022-11-03T09:54:59.837Z,2.20
2022-11-03T09:59:25.390Z,1.70
2022-11-03T10:03:51.057Z,2.27
2022-11-03T10:08:37.347Z,1.87
2022-11-03T10:13:02.696Z,2.00
2022-11-03T10:17:31.024Z,1.57
2022-11-03T10:21:56.370Z,2.03
2022-11-03T10:26:22.465Z,2.40
2022-11-03T10:31:17.548Z,2.53
2022-11-03T10:35:43.024Z,1.80
2022-11-03T10:40:50.846Z,2.00
2022-11-03T10:45:20.386Z,2.00
2022-11-03T10:49:45.866Z,1.83
2022-11-03T10:54:15.001Z,2.30
2022-11-03T11:03:06.744Z,1.77
2022-11-03T11:07:40.604Z,1.87
2022-11-03T11:16:56.072Z,2.27
2022-11-03T11:21:21.243Z,2.40
2022-11-03T11:26:18.128Z,1.83
2022-11-03T11:49:05.217Z,1.93
2022-11-03T11:53:39.157Z,1.40
2022-11-03T11:58:13.454Z,2.17
2022-11-03T12:02:38.702Z,2.30
2022-11-03T12:07:03.952Z,2.03
2022-11-03T12:12:08.385Z,2.40
2022-11-03T12:16:38.048Z,1.97
2022-11-03T12:21:25.821Z,1.80
2022-11-03T12:25:51.059Z,1.67
2022-11-03T12:30:19.204Z,1.97
2022-11-03T12:34:44.751Z,1.80
2022-11-03T12:39:10.460Z,2.17
2022-11-03T12:43:35.694Z,1.77
2022-11-03T12:48:00.999Z,2.67
2022-11-03T12:52:26.258Z,1.80
2022-11-03T12:56:53.248Z,2.07
2022-11-03T13:01:18.933Z,2.67
2022-11-03T13:05:44.371Z,2.50
2022-11-03T13:10:10.656Z,2.10
2022-11-03T13:14:35.891Z,2.03
2022-11-03T13:19:01.563Z,3.03
2022-11-03T13:23:26.919Z,2.00
2022-11-03T13:27:54.545Z,2.50
2022-11-03T13:32:20.071Z,1.90
2022-11-03T13:36:45.427Z,2.00
2022-11-03T13:41:10.733Z,2.23
2022-11-03T13:45:36.119Z,2.07
2022-11-03T13:50:14.198Z,2.57
2022-11-03T13:59:25.577Z,2.23
2022-11-03T14:08:36.984Z,2.33
2022-11-03T14:13:02.225Z,2.13
2022-11-03T14:17:28.151Z,1.90
2022-11-03T14:21:53.557Z,2.17
2022-11-03T14:26:23.780Z,2.20
2022-11-03T14:31:01.186Z,2.10
2022-11-03T14:35:26.433Z,2.40
2022-11-03T14:39:51.707Z,2.47
2022-11-03T14:44:17.123Z,2.20
2022-11-03T14:48:42.558Z,2.47
2022-11-03T14:53:07.862Z,2.10
2022-11-03T14:57:33.301Z,2.90
2022-11-03T15:01:59.464Z,2.60
2022-11-03T15:06:25.169Z,2.60
2022-11-03T15:10:51.089Z,3.67
2022-11-03T15:15:16.412Z,2.10
2022-11-03T15:19:41.657Z,2.03
2022-11-03T15:28:52.629Z,3.23
2022-11-03T15:33:17.844Z,2.33
2022-11-03T15:37:43.070Z,2.30
2022-11-03T15:42:08.398Z,5.00
2022-11-03T15:46:33.661Z,3.30
2022-11-03T15:50:59.000Z,3.07
2022-11-03T15:55:24.440Z,2.70
2022-11-03T15:59:51.565Z,2.97
2022-11-03T16:04:18.288Z,2.50
2022-11-03T16:08:43.588Z,3.13
2022-11-03T16:13:08.811Z,3.63
2022-11-03T16:17:34.094Z,2.80
2022-11-03T16:21:59.290Z,2.50
2022-11-03T16:26:24.519Z,3.27
2022-11-03T16:30:54.021Z,3.60
2022-11-03T16:35:20.715Z,3.67
2022-11-03T16:39:45.959Z,3.20
2022-11-03T16:44:11.195Z,3.20
2022-11-03T16:48:36.507Z,4.17
2022-11-03T16:53:02.082Z,3.90
2022-11-03T16:57:27.514Z,3.80
2022-11-03T17:01:53.628Z,3.17
2022-11-03T17:06:18.962Z,2.93
2022-11-03T17:10:44.211Z,3.00
2022-11-03T17:15:10.032Z,3.00
2022-11-03T17:19:35.414Z,3.73
2022-11-03T17:24:01.113Z,2.80
2022-11-03T17:28:26.895Z,2.87
2022-11-03T17:33:17.453Z,2.93
2022-11-03T17:37:42.912Z,2.90
2022-11-03T17:42:17.206Z,2.93
2022-11-03T17:46:42.501Z,2.53
2022-11-03T17:51:12.185Z,2.60
2022-11-03T17:55:38.442Z,3.03
2022-11-03T18:00:05.040Z,2.40
2022-11-03T18:04:30.271Z,3.03
2022-11-03T18:08:55.573Z,2.90
2022-11-03T18:13:30.109Z,2.47
2022-11-03T18:17:59.259Z,3.07
2022-11-03T18:22:24.665Z,2.00
2022-11-03T18:26:49.933Z,2.80
2022-11-03T18:31:33.856Z,3.20
2022-11-03T18:36:04.473Z,2.60
2022-11-03T18:40:32.128Z,2.53
2022-11-03T18:45:02.424Z,2.80
2022-11-03T18:49:28.034Z,3.07
2022-11-03T18:53:53.355Z,2.87
2022-11-03T18:58:23.300Z,2.50
2022-11-03T19:02:50.429Z,2.63
2022-11-03T19:07:28.961Z,2.40
2022-11-03T19:11:57.410Z,2.33
2022-11-03T19:16:24.453Z,2.53
2022-11-03T19:20:49.670Z,2.33
2022-11-03T19:25:15.603Z,2.80
2022-11-03T19:29:41.295Z,2.60
2022-11-03T19:34:11.329Z,2.70
2022-11-03T19:38:36.549Z,2.77
2022-11-03T19:43:01.790Z,2.63
2022-11-03T19:47:34.558Z,2.33
2022-11-03T19:52:00.777Z,2.70
2022-11-03T19:56:26.093Z,3.30
2022-11-03T20:00:52.382Z,2.90
2022-11-03T20:05:17.710Z,2.93
2022-11-03T20:09:43.683Z,2.60
2022-11-03T20:14:24.206Z,2.40
2022-11-03T20:18:50.085Z,2.57
2022-11-03T20:23:28.891Z,2.63
2022-11-03T20:27:56.235Z,2.83
2022-11-03T20:32:21.478Z,2.50
2022-11-03T20:36:48.131Z,2.90
2022-11-03T20:41:15.725Z,3.10
2022-11-03T20:45:41.014Z,2.77
2022-11-03T20:50:08.086Z,2.43
2022-11-03T20:54:33.694Z,2.73
2022-11-03T20:58:59.414Z,2.33
2022-11-03T21:03:53.681Z,2.77
2022-11-03T21:08:14.100Z,2.60
2022-11-03T21:12:39.676Z,2.77
2022-11-03T21:17:24.947Z,3.10
2022-11-03T21:21:50.299Z,3.10
2022-11-03T21:26:15.563Z,2.57
2022-11-03T21:30:40.795Z,2.87
2022-11-03T21:35:08.139Z,2.90
2022-11-03T21:39:33.683Z,2.80
2022-11-03T21:44:16.990Z,2.63
2022-11-03T21:49:01.080Z,2.97
2022-11-03T21:53:31.928Z,2.80
2022-11-03T21:57:57.317Z,2.80
2022-11-03T22:02:22.703Z,3.53
2022-11-03T22:06:48.000Z,2.80
2022-11-03T22:11:21.940Z,3.10
2022-11-03T22:16:05.525Z,3.20
2022-11-03T22:20:49.344Z,3.00
2022-11-03T22:25:35.834Z,2.73
2022-11-03T22:30:19.932Z,2.90
2022-11-03T22:35:03.564Z,3.40
2022-11-03T22:39:47.131Z,2.93
2022-11-03T22:44:30.760Z,3.10
2022-11-03T22:48:56.089Z,3.10
2022-11-03T22:53:40.157Z,2.90
2022-11-03T22:58:05.352Z,3.20
2022-11-03T23:02:30.648Z,2.80
2022-11-03T23:06:55.905Z,3.03
2022-11-03T23:11:29.214Z,3.23
2022-11-03T23:15:54.503Z,2.93
2022-11-03T23:20:38.102Z,3.47
2022-11-03T23:25:03.391Z,3.10
2022-11-03T23:29:29.561Z,3.50
2022-11-03T23:33:55.199Z,3.30
2022-11-03T23:38:20.445Z,3.57
2022-11-03T23:42:45.693Z,3.57
2022-11-03T23:47:29.476Z,3.70
2022-11-03T23:51:54.887Z,3.53
2022-11-03T23:56:43.564Z,3.40
